Time;durP1;ratioP1;P1;durP2;ratioP2;P2;SDS_P1;SDS_P2;PMS_P1;PMS_P2;Temp;Humidity;BMP_temperature;BMP_pressure;BME280_temperature;BME280_humidity;BME280_pressure;Samples;Min_cycle;Max_cycle;Signal;HPM_P1;HPM_P2
2023/07/25 00:01:42;;;;;;;;;;;;;;;24.97;54.36;100278.22;7396645;19;1486;-40
2023/07/25 00:04:13;;;;;;;;;;;;;;;25.02;53.44;100280.34;7394512;19;1681;-40
2023/07/25 00:06:41;;;;;;;;;;;;;;;25.12;53.36;100271.94;7395831;19;1454;-40
2023/07/25 00:09:10;;;;;;;;;;;;;;;25.02;54.03;100278.47;7397179;19;1452;-40
2023/07/25 00:11:38;;;;;;;;;;;;;;;25.06;53.28;100289.75;7395131;19;1842;-40
2023/07/25 00:14:06;;;;;;;;;;;;;;;24.81;54.89;100289.22;7395656;19;1645;-40
2023/07/25 00:16:35;;;;;;;;;;;;;;;24.77;55.14;100286.03;7396173;19;1231;-40
2023/07/25 00:19:03;;;;;;;;;;;;;;;24.56;55.50;100294.84;7395364;19;1452;-40
2023/07/25 00:21:34;;;;;;;;;;;;;;;24.47;55.84;100293.25;7396071;19;1505;-40
2023/07/25 00:24:02;;;;;;;;;;;;;;;24.74;55.05;100293.69;7395326;19;1509;-40
2023/07/25 00:26:30;;;;;;;;;;;;;;;24.97;54.31;100290.91;7395772;19;1222;-40
2023/07/25 00:28:59;;;;;;;;;;;;;;;24.94;54.65;100283.97;7394993;19;1441;-40
2023/07/25 00:31:27;;;;;;;;;;;;;;;25.10;54.26;100282.94;7394434;19;1857;-40
2023/07/25 00:33:55;;;;;;;;;;;;;;;25.19;53.65;100278.28;7395597;19;1202;-40
2023/07/25 00:36:24;;;;;;;;;;;;;;;25.16;54.22;100279.50;7396249;19;1963;-40
2023/07/25 00:38:54;;;;;;;;;;;;;;;25.10;54.26;100274.84;7394887;19;1843;-40
2023/07/25 00:41:23;;;;;;;;;;;;;;;24.84;54.86;100259.09;7393641;19;1303;-40
2023/07/25 00:43:51;;;;;;;;;;;;;;;25.10;53.98;100279.41;7395876;19;1291;-40
2023/07/25 00:46:19;;;;;;;;;;;;;;;25.09;53.43;100262.34;7395611;19;1199;-40
2023/07/25 00:48:48;;;;;;;;;;;;;;;25.02;53.36;100262.25;7395181;19;1430;-40
2023/07/25 00:51:17;;;;;;;;;;;;;;;24.92;54.49;100277.91;7394849;19;1849;-40
2023/07/25 00:53:45;;;;;;;;;;;;;;;24.95;54.51;100265.91;7394992;19;1367;-40
2023/07/25 00:56:16;;;;;;;;;;;;;;;25.05;54.14;100265.59;7394876;19;1598;-40
2023/07/25 00:58:44;;;;;;;;;;;;;;;24.88;54.62;100270.38;7394090;19;1358;-40
2023/07/25 01:01:12;;;;;;;;;;;;;;;24.92;54.73;100283.31;7395623;19;1512;-40
2023/07/25 01:03:42;;;;;;;;;;;;;;;24.52;55.84;100274.63;7394590;19;1805;-40
2023/07/25 01:06:13;;;;;;;;;;;;;;;24.78;54.81;100265.25;7393958;19;1386;-40
2023/07/25 01:08:49;;;;;;;;;;;;;;;25.04;54.14;100258.53;7394413;19;1705;-40
2023/07/25 01:11:20;;;;;;;;;;;;;;;25.10;53.84;100263.19;7393159;19;1855;-40
2023/07/25 01:13:49;;;;;;;;;;;;;;;24.97;54.22;100258.44;7396126;19;1305;-40
2023/07/25 01:16:19;;;;;;;;;;;;;;;24.86;54.71;100262.44;7397146;19;1426;-40
2023/07/25 01:18:47;;;;;;;;;;;;;;;25.05;53.57;100252.06;7401926;19;1460;-40
2023/07/25 01:21:16;;;;;;;;;;;;;;;25.16;53.58;100246.19;7402055;19;1716;-40
2023/07/25 01:23:45;;;;;;;;;;;;;;;25.11;53.25;100240.50;7402367;19;1301;-40
2023/07/25 01:26:18;;;;;;;;;;;;;;;24.68;55.09;100243.88;7401704;19;1514;-40
2023/07/25 01:28:46;;;;;;;;;;;;;;;24.61;55.31;100257.31;7400985;19;1273;-40
2023/07/25 01:31:15;;;;;;;;;;;;;;;24.98;54.09;100254.69;7401076;19;1861;-40
2023/07/25 01:33:43;;;;;;;;;;;;;;;24.92;53.80;100241.94;7401627;19;1527;-40
2023/07/25 01:36:11;;;;;;;;;;;;;;;24.97;53.39;100240.34;7400360;19;1488;-40
2023/07/25 01:38:39;;;;;;;;;;;;;;;24.94;53.61;100242.56;7401734;19;1561;-40
2023/07/25 01:41:08;;;;;;;;;;;;;;;24.92;53.69;100245.47;7400654;19;1489;-40
2023/07/25 01:43:39;;;;;;;;;;;;;;;24.92;53.63;100228.41;7401922;19;1237;-40
2023/07/25 01:46:07;;;;;;;;;;;;;;;24.98;53.48;100252.81;7400115;19;1535;-40
2023/07/25 01:48:35;;;;;;;;;;;;;;;25.01;53.87;100254.34;7401061;19;1477;-40
2023/07/25 01:51:03;;;;;;;;;;;;;;;24.93;53.81;100265.22;7400245;19;1855;-40
2023/07/25 01:53:32;;;;;;;;;;;;;;;24.71;54.91;100261.59;7400368;19;1194;-40
2023/07/25 01:56:00;;;;;;;;;;;;;;;24.60;55.01;100243.97;7399784;19;1508;-40
2023/07/25 01:58:28;;;;;;;;;;;;;;;24.42;55.60;100255.09;7401549;19;1214;-40
2023/07/25 02:01:01;;;;;;;;;;;;;;;24.79;54.63;100261.53;7400256;19;1284;-40
2023/07/25 02:03:30;;;;;;;;;;;;;;;24.43;55.40;100262.16;7400725;19;1501;-40
2023/07/25 02:05:58;;;;;;;;;;;;;;;24.55;55.11;100241.84;7398930;19;1218;-40
2023/07/25 02:08:26;;;;;;;;;;;;;;;24.81;54.50;100240.53;7400493;19;1435;-40
2023/07/25 02:10:54;;;;;;;;;;;;;;;24.78;54.48;100254.44;7399461;19;1510;-40
2023/07/25 02:13:23;;;;;;;;;;;;;;;24.57;55.22;100261.41;7398722;19;1845;-40
2023/07/25 02:15:51;;;;;;;;;;;;;;;24.84;54.29;100258.25;7399721;19;1360;-40
2023/07/25 02:18:22;;;;;;;;;;;;;;;24.99;53.88;100248.28;7399731;19;1300;-40
2023/07/25 02:20:50;;;;;;;;;;;;;;;25.01;53.81;100249.75;7396941;19;1339;-40
2023/07/25 02:23:18;;;;;;;;;;;;;;;25.06;53.79;100260.00;7397387;19;1454;-40
2023/07/25 02:25:48;;;;;;;;;;;;;;;24.95;54.07;100261.34;7399415;19;1247;-40
2023/07/25 02:28:16;;;;;;;;;;;;;;;24.97;53.78;100263.84;7398455;19;1666;-40
2023/07/25 02:30:44;;;;;;;;;;;;;;;24.90;53.65;100277.28;7398969;19;1550;-40
2023/07/25 02:33:12;;;;;;;;;;;;;;;24.91;53.50;100272.69;7397573;19;1851;-40
2023/07/25 02:35:43;;;;;;;;;;;;;;;24.91;53.28;100280.81;7398776;19;1384;-40
2023/07/25 02:38:12;;;;;;;;;;;;;;;24.93;53.43;100284.16;7399197;19;1607;-40
2023/07/25 02:40:40;;;;;;;;;;;;;;;24.88;54.11;100282.03;7399366;19;1587;-40
2023/07/25 02:43:09;;;;;;;;;;;;;;;24.79;54.42;100270.47;7399672;19;1559;-40
2023/07/25 02:45:37;;;;;;;;;;;;;;;24.81;54.35;100275.69;7398594;19;1324;-40
2023/07/25 02:48:06;;;;;;;;;;;;;;;24.91;53.67;100281.66;7398704;19;1339;-40
2023/07/25 02:50:34;;;;;;;;;;;;;;;24.80;54.43;100276.72;7398289;19;1229;-40
2023/07/25 02:53:05;;;;;;;;;;;;;;;24.55;54.94;100276.13;7396985;19;1864;-40
2023/07/25 02:55:33;;;;;;;;;;;;;;;24.34;55.75;100290.31;7399198;19;1470;-40
2023/07/25 02:58:02;;;;;;;;;;;;;;;24.16;55.95;100283.38;7399225;19;1214;-40
2023/07/25 03:00:30;;;;;;;;;;;;;;;24.27;55.64;100275.84;7397960;19;1318;-40
2023/07/25 03:02:58;;;;;;;;;;;;;;;24.29;55.41;100280.06;7397977;19;1504;-40
2023/07/25 03:05:29;;;;;;;;;;;;;;;24.22;55.59;100279.09;7397534;19;1301;-40
2023/07/25 03:07:57;;;;;;;;;;;;;;;24.22;55.49;100277.22;7397950;19;1514;-40
2023/07/25 03:10:28;;;;;;;;;;;;;;;24.16;55.72;100266.31;7397365;19;2040;-40
2023/07/25 03:12:56;;;;;;;;;;;;;;;24.11;55.93;100257.91;7396933;19;1864;-40
2023/07/25 03:15:25;;;;;;;;;;;;;;;24.18;55.77;100265.09;7397758;19;1200;-40
2023/07/25 03:17:54;;;;;;;;;;;;;;;24.18;55.97;100259.72;7397765;19;1885;-40
2023/07/25 03:20:22;;;;;;;;;;;;;;;24.26;55.56;100256.09;7396634;19;1310;-40
2023/07/25 03:22:50;;;;;;;;;;;;;;;24.62;54.52;100271.66;7397583;19;1357;-40
2023/07/25 03:25:19;;;;;;;;;;;;;;;24.86;53.87;100254.31;7397604;19;1242;-40
2023/07/25 03:27:49;;;;;;;;;;;;;;;24.89;54.12;100264.78;7397193;19;1226;-40
2023/07/25 03:30:18;;;;;;;;;;;;;;;24.58;54.96;100254.97;7397289;19;1564;-40
2023/07/25 03:32:46;;;;;;;;;;;;;;;24.31;55.40;100252.84;7395214;19;1861;-40
2023/07/25 03:35:14;;;;;;;;;;;;;;;24.30;55.34;100243.06;7397747;19;1591;-40
2023/07/25 03:37:43;;;;;;;;;;;;;;;24.40;55.20;100251.75;7396127;19;1425;-40
2023/07/25 03:40:11;;;;;;;;;;;;;;;24.32;55.61;100255.38;7394260;19;1477;-40
2023/07/25 03:42:39;;;;;;;;;;;;;;;24.40;55.62;100251.75;7397304;19;1222;-40
2023/07/25 03:45:11;;;;;;;;;;;;;;;24.27;55.83;100243.41;7397292;19;1626;-40
2023/07/25 03:47:39;;;;;;;;;;;;;;;24.26;55.58;100233.66;7396264;19;1304;-40
2023/07/25 03:50:08;;;;;;;;;;;;;;;24.55;54.92;100239.13;7397436;19;1253;-40
2023/07/25 03:52:36;;;;;;;;;;;;;;;24.86;53.65;100229.16;7395794;19;1843;-40
2023/07/25 03:55:05;;;;;;;;;;;;;;;25.05;53.45;100217.75;7396567;19;1638;-40
2023/07/25 03:57:33;;;;;;;;;;;;;;;25.16;52.98;100202.91;7395534;19;1645;-40
2023/07/25 04:00:01;;;;;;;;;;;;;;;25.00;54.89;100210.19;7396301;19;1171;-40
2023/07/25 04:02:32;;;;;;;;;;;;;;;24.78;54.43;100205.75;7393621;19;1474;-40
2023/07/25 04:05:00;;;;;;;;;;;;;;;24.48;55.11;100221.94;7393830;19;1536;-41
2023/07/25 04:07:28;;;;;;;;;;;;;;;24.41;55.27;100226.38;7394986;19;1352;-41
2023/07/25 04:09:57;;;;;;;;;;;;;;;24.39;55.27;100223.88;7395515;19;1612;-41
2023/07/25 04:12:25;;;;;;;;;;;;;;;24.46;55.02;100231.25;7395448;19;1842;-41
2023/07/25 04:14:54;;;;;;;;;;;;;;;24.45;54.94;100216.88;7395754;19;1910;-41
2023/07/25 04:17:22;;;;;;;;;;;;;;;24.48;54.94;100226.50;7395683;19;1212;-41
2023/07/25 04:19:53;;;;;;;;;;;;;;;24.48;54.82;100227.34;7394132;19;1639;-41
2023/07/25 04:22:21;;;;;;;;;;;;;;;24.48;55.01;100223.81;7392746;19;1944;-41
2023/07/25 04:24:50;;;;;;;;;;;;;;;24.55;55.07;100216.66;7394396;19;1321;-41
2023/07/25 04:27:18;;;;;;;;;;;;;;;24.51;55.08;100210.78;7392749;19;1176;-41
2023/07/25 04:29:46;;;;;;;;;;;;;;;24.47;55.02;100220.28;7393483;19;1444;-41
2023/07/25 04:32:14;;;;;;;;;;;;;;;24.37;55.18;100214.25;7389686;19;1829;-41
2023/07/25 04:34:43;;;;;;;;;;;;;;;24.56;55.13;100216.47;7390619;19;1222;-41
2023/07/25 04:37:14;;;;;;;;;;;;;;;24.42;55.59;100222.69;7394859;19;1560;-41
2023/07/25 04:39:42;;;;;;;;;;;;;;;24.34;55.87;100211.94;7395558;19;1516;-41
2023/07/25 04:42:10;;;;;;;;;;;;;;;24.34;55.68;100203.84;7396512;19;1639;-41
2023/07/25 04:44:38;;;;;;;;;;;;;;;24.41;55.60;100212.88;7395021;19;1587;-41
2023/07/25 04:47:07;;;;;;;;;;;;;;;24.46;55.68;100207.75;7395477;19;1563;-41
2023/07/25 04:49:35;;;;;;;;;;;;;;;24.46;55.82;100218.56;7395006;19;1496;-41
2023/07/25 04:52:03;;;;;;;;;;;;;;;24.53;55.70;100219.56;7400154;19;1857;-41
2023/07/25 04:54:34;;;;;;;;;;;;;;;24.49;55.81;100199.31;7401733;19;1275;-41
2023/07/25 04:57:02;;;;;;;;;;;;;;;24.51;56.17;100215.34;7401081;19;1527;-41
2023/07/25 04:59:31;;;;;;;;;;;;;;;24.58;55.83;100202.78;7402592;19;1456;-41
2023/07/25 05:02:00;;;;;;;;;;;;;;;24.61;56.08;100207.78;7401630;19;1572;-41
2023/07/25 05:04:28;;;;;;;;;;;;;;;24.66;55.79;100202.66;7402690;19;1340;-41
2023/07/25 05:06:56;;;;;;;;;;;;;;;24.69;55.69;100202.31;7398759;19;1360;-41
2023/07/25 05:09:25;;;;;;;;;;;;;;;24.71;55.61;100183.19;7402008;19;1957;-41
2023/07/25 05:11:56;;;;;;;;;;;;;;;24.72;55.80;100183.00;7402431;19;1493;-41
2023/07/25 05:14:24;;;;;;;;;;;;;;;24.76;55.69;100188.88;7400307;19;1852;-41
2023/07/25 05:16:52;;;;;;;;;;;;;;;24.90;55.37;100177.19;7400972;19;1233;-41
2023/07/25 05:19:21;;;;;;;;;;;;;;;25.01;55.31;100174.00;7400634;19;1570;-41
2023/07/25 05:21:49;;;;;;;;;;;;;;;25.06;55.25;100159.91;7400823;19;1236;-41
2023/07/25 05:24:17;;;;;;;;;;;;;;;25.02;55.23;100159.44;7401255;19;1240;-41
2023/07/25 05:26:45;;;;;;;;;;;;;;;25.06;55.70;100180.72;7401049;19;1466;-41
2023/07/25 05:29:16;;;;;;;;;;;;;;;25.12;55.37;100163.72;7401322;19;1618;-41
2023/07/25 05:31:45;;;;;;;;;;;;;;;25.05;55.50;100169.06;7400278;19;1559;-41
2023/07/25 05:34:13;;;;;;;;;;;;;;;25.08;55.82;100163.25;7399417;19;1860;-41
2023/07/25 05:36:41;;;;;;;;;;;;;;;25.29;55.35;100158.97;7400389;19;1301;-41
2023/07/25 05:39:10;;;;;;;;;;;;;;;25.38;55.12;100164.03;7401431;19;1380;-41
2023/07/25 05:41:39;;;;;;;;;;;;;;;25.42;54.92;100160.97;7401600;19;1890;-41
2023/07/25 05:44:07;;;;;;;;;;;;;;;25.43;55.30;100163.47;7400315;19;1333;-41
2023/07/25 05:46:38;;;;;;;;;;;;;;;25.53;55.11;100163.16;7400921;19;1120;-41
2023/07/25 05:49:06;;;;;;;;;;;;;;;25.53;54.97;100166.69;7399975;19;1599;-41
2023/07/25 05:51:35;;;;;;;;;;;;;;;25.76;54.63;100154.81;7395738;19;1540;-41
2023/07/25 05:54:03;;;;;;;;;;;;;;;26.01;54.46;100157.97;7400083;19;1859;-41
2023/07/25 05:56:31;;;;;;;;;;;;;;;25.84;55.03;100162.78;7399618;19;1511;-41
2023/07/25 05:58:59;;;;;;;;;;;;;;;25.67;55.27;100170.38;7400934;19;1456;-41
2023/07/25 06:01:28;;;;;;;;;;;;;;;25.75;56.02;100163.97;7401247;19;1702;-42
2023/07/25 06:03:59;;;;;;;;;;;;;;;25.76;55.63;100166.47;7399565;19;1518;-41
2023/07/25 06:06:27;;;;;;;;;;;;;;;25.98;55.37;100171.91;7402382;19;1092;-42
2023/07/25 06:08:56;;;;;;;;;;;;;;;26.18;54.75;100156.66;7401602;19;1920;-42
2023/07/25 06:11:25;;;;;;;;;;;;;;;26.25;54.68;100158.56;7400439;19;1858;-41
2023/07/25 06:13:54;;;;;;;;;;;;;;;26.27;55.04;100149.19;7400128;19;1837;-41
2023/07/25 06:16:22;;;;;;;;;;;;;;;26.32;54.94;100143.16;7400916;19;1448;-41
2023/07/25 06:18:50;;;;;;;;;;;;;;;26.39;54.78;100120.47;7398202;19;1421;-41
2023/07/25 06:21:21;;;;;;;;;;;;;;;26.32;56.40;100143.16;7398456;19;1832;-41
2023/07/25 06:23:49;;;;;;;;;;;;;;;26.18;57.21;100151.22;7396815;19;1878;-41
2023/07/25 06:26:18;;;;;;;;;;;;;;;26.35;57.92;100150.91;7399477;19;1652;-41
2023/07/25 06:28:46;;;;;;;;;;;;;;;26.25;59.03;100150.44;7393933;19;1493;-41
2023/07/25 06:31:14;;;;;;;;;;;;;;;26.28;58.71;100144.59;7396990;19;1501;-42
2023/07/25 06:33:43;;;;;;;;;;;;;;;26.28;58.44;100141.88;7394099;19;1852;-44
2023/07/25 06:36:11;;;;;;;;;;;;;;;26.24;58.53;100136.03;7399986;19;1457;-41
2023/07/25 06:38:42;;;;;;;;;;;;;;;26.45;58.11;100134.28;7399763;19;1865;-41
2023/07/25 06:41:10;;;;;;;;;;;;;;;26.58;56.94;100118.09;7393660;19;1470;-41
2023/07/25 06:43:38;;;;;;;;;;;;;;;26.57;57.61;100109.09;7394653;19;1442;-41
2023/07/25 06:46:07;;;;;;;;;;;;;;;26.44;57.46;100109.06;7396090;19;1590;-42
2023/07/25 06:48:35;;;;;;;;;;;;;;;26.43;58.37;100101.13;7399605;19;1856;-41
2023/07/25 06:51:03;;;;;;;;;;;;;;;26.42;58.17;100096.72;7399753;19;1548;-41
2023/07/25 06:53:31;;;;;;;;;;;;;;;26.41;58.46;100086.94;7397891;19;1841;-41
2023/07/25 06:56:02;;;;;;;;;;;;;;;26.32;58.58;100088.94;7398256;19;1832;-41
2023/07/25 06:58:31;;;;;;;;;;;;;;;26.31;58.62;100071.03;7393512;19;983;-43
2023/07/25 07:00:59;;;;;;;;;;;;;;;26.51;58.25;100066.53;7386333;19;1630;-44
2023/07/25 07:03:27;;;;;;;;;;;;;;;26.45;58.48;100067.34;7390027;19;1610;-44
2023/07/25 07:05:55;;;;;;;;;;;;;;;26.12;58.40;100087.00;7389722;19;1849;-44
2023/07/25 07:08:24;;;;;;;;;;;;;;;25.56;58.33;100078.81;7389620;19;1706;-44
2023/07/25 07:10:56;;;;;;;;;;;;;;;25.25;56.68;100090.84;7389673;19;1932;-45
2023/07/25 07:13:27;;;;;;;;;;;;;;;25.25;56.00;100077.31;7392270;19;1842;-44
2023/07/25 07:15:56;;;;;;;;;;;;;;;25.20;55.01;100096.78;7396121;19;1630;-44
2023/07/25 07:18:24;;;;;;;;;;;;;;;24.95;54.60;100082.81;7397976;19;1550;-44
2023/07/25 07:20:55;;;;;;;;;;;;;;;24.88;54.13;100086.47;7396156;19;1481;-44
2023/07/25 07:23:24;;;;;;;;;;;;;;;24.83;54.14;100083.47;7398401;19;1476;-45
2023/07/25 07:25:52;;;;;;;;;;;;;;;24.85;52.96;100093.09;7393009;19;1457;-45
2023/07/25 07:28:22;;;;;;;;;;;;;;;25.06;52.88;100077.91;7395835;19;1944;-44
2023/07/25 07:30:54;;;;;;;;;;;;;;;24.77;52.36;100068.84;7397921;19;1549;-44
2023/07/25 07:33:22;;;;;;;;;;;;;;;24.69;52.31;100060.84;7396750;19;1858;-44
2023/07/25 07:35:50;;;;;;;;;;;;;;;24.73;51.84;100067.56;7396487;19;1382;-44
2023/07/25 07:38:18;;;;;;;;;;;;;;;24.70;51.83;100071.50;7396941;19;1539;-44
2023/07/25 07:40:47;;;;;;;;;;;;;;;24.69;51.38;100053.59;7396646;19;1402;-43
2023/07/25 07:43:16;;;;;;;;;;;;;;;24.73;51.38;100052.19;7397636;19;1563;-44
2023/07/25 07:45:45;;;;;;;;;;;;;;;24.61;51.31;100051.84;7395138;19;1336;-44
2023/07/25 07:48:16;;;;;;;;;;;;;;;24.55;51.48;100046.34;7394912;19;1527;-41
2023/07/25 07:50:44;;;;;;;;;;;;;;;24.60;50.88;100028.53;7392991;19;1698;-41
2023/07/25 07:53:12;;;;;;;;;;;;;;;24.71;50.76;100034.47;7392580;19;1855;-41
2023/07/25 07:55:41;;;;;;;;;;;;;;;24.61;50.51;100027.53;7396346;19;1514;-41
2023/07/25 07:58:09;;;;;;;;;;;;;;;24.53;50.76;100034.88;7396125;19;1532;-41
2023/07/25 08:00:37;;;;;;;;;;;;;;;24.67;50.48;100049.41;7394997;19;1243;-41
2023/07/25 08:03:05;;;;;;;;;;;;;;;24.83;51.53;100038.38;7394680;19;1484;-41
2023/07/25 08:05:36;;;;;;;;;;;;;;;24.73;53.00;100040.53;7394701;19;1524;-41
2023/07/25 08:08:05;;;;;;;;;;;;;;;24.40;53.25;100030.16;7395367;19;1614;-40
2023/07/25 08:10:33;;;;;;;;;;;;;;;24.38;53.97;100038.44;7389772;19;1655;-40
2023/07/25 08:13:01;;;;;;;;;;;;;;;24.34;54.45;100036.31;7390321;19;1569;-40
2023/07/25 08:15:30;;;;;;;;;;;;;;;24.37;55.25;100028.66;7393711;19;1871;-40
2023/07/25 08:17:58;;;;;;;;;;;;;;;24.24;56.24;100033.06;7395565;19;1784;-40
2023/07/25 08:20:26;;;;;;;;;;;;;;;24.38;55.83;100026.78;7395794;19;1579;-40
2023/07/25 08:22:57;;;;;;;;;;;;;;;24.25;56.66;100021.22;7394778;19;1466;-40
2023/07/25 08:25:25;;;;;;;;;;;;;;;24.26;56.70;100028.31;7395087;19;1589;-40
2023/07/25 08:27:54;;;;;;;;;;;;;;;24.29;56.77;100020.66;7395507;19;1623;-40
2023/07/25 08:30:22;;;;;;;;;;;;;;;24.21;57.39;100018.91;7397458;19;1328;-40
2023/07/25 08:32:50;;;;;;;;;;;;;;;24.26;57.32;100017.50;7392734;19;1442;-40
2023/07/25 08:35:19;;;;;;;;;;;;;;;24.30;57.30;100024.19;7394403;19;1847;-43
2023/07/25 08:37:47;;;;;;;;;;;;;;;24.25;58.09;100013.09;7395995;19;1505;-41
2023/07/25 08:40:18;;;;;;;;;;;;;;;24.10;58.24;100003.16;7394899;19;1643;-40
2023/07/25 08:42:47;;;;;;;;;;;;;;;24.29;58.04;100019.81;7393104;19;1555;-40
2023/07/25 08:45:16;;;;;;;;;;;;;;;24.21;58.80;100009.94;7394936;19;1838;-40
2023/07/25 08:47:47;;;;;;;;;;;;;;;24.20;58.41;100014.50;7395764;19;1298;-40
2023/07/25 08:50:17;;;;;;;;;;;;;;;24.21;58.67;99999.13;7396540;19;1318;-40
2023/07/25 08:52:48;;;;;;;;;;;;;;;24.19;58.93;99980.44;7396516;19;1331;-40
2023/07/25 08:55:19;;;;;;;;;;;;;;;24.25;58.60;100002.31;7393307;19;1849;-40
2023/07/25 08:57:48;;;;;;;;;;;;;;;24.29;58.63;99995.50;7393128;19;1286;-40
2023/07/25 09:00:17;;;;;;;;;;;;;;;24.25;58.94;99989.63;7394164;19;1435;-40
2023/07/25 09:02:45;;;;;;;;;;;;;;;24.30;58.81;99999.88;7390606;19;1618;-40
2023/07/25 09:05:13;;;;;;;;;;;;;;;24.28;59.22;100001.94;7393302;19;1758;-40
2023/07/25 09:07:42;;;;;;;;;;;;;;;24.25;59.17;100003.13;7394485;19;1456;-40
2023/07/25 09:10:10;;;;;;;;;;;;;;;24.30;58.33;99997.19;7394771;19;1496;-41
2023/07/25 09:12:41;;;;;;;;;;;;;;;24.07;58.69;99992.72;7393739;19;1614;-41
2023/07/25 09:15:10;;;;;;;;;;;;;;;24.17;54.42;99993.28;7391737;19;1835;-40
2023/07/25 09:17:38;;;;;;;;;;;;;;;24.20;53.02;99986.66;7393417;19;1349;-40
2023/07/25 09:20:08;;;;;;;;;;;;;;;24.25;53.15;99994.19;7390328;19;1417;-41
2023/07/25 09:22:37;;;;;;;;;;;;;;;24.34;52.92;99993.06;7393231;19;1905;-40
2023/07/25 09:25:09;;;;;;;;;;;;;;;24.36;52.79;99997.25;7393838;19;1480;-40
2023/07/25 09:27:37;;;;;;;;;;;;;;;24.37;52.52;99973.75;7394245;19;1554;-41
2023/07/25 09:30:12;;;;;;;;;;;;;;;24.38;52.28;99970.88;7389934;19;1684;-43
2023/07/25 09:32:41;;;;;;;;;;;;;;;24.30;52.12;99975.56;7392638;19;1284;-43
2023/07/25 09:35:11;;;;;;;;;;;;;;;24.30;52.30;99980.97;7392448;19;1830;-43
2023/07/25 09:37:39;;;;;;;;;;;;;;;24.39;52.16;99985.22;7396409;19;1550;-43
2023/07/25 09:40:10;;;;;;;;;;;;;;;24.44;51.30;99963.03;7400967;19;1536;-44
2023/07/25 09:42:41;;;;;;;;;;;;;;;24.25;51.23;99956.38;7399802;19;1438;-44
2023/07/25 09:45:13;;;;;;;;;;;;;;;24.26;51.58;99958.91;7401285;19;1492;-44
2023/07/25 09:47:41;;;;;;;;;;;;;;;24.24;51.38;99943.91;7400739;19;1311;-44
2023/07/25 09:50:10;;;;;;;;;;;;;;;24.16;51.61;99956.50;7400837;19;1219;-44
2023/07/25 09:52:42;;;;;;;;;;;;;;;24.29;51.26;99931.50;7397732;19;1508;-44
2023/07/25 09:55:11;;;;;;;;;;;;;;;24.48;51.42;99961.63;7398574;19;1843;-44
2023/07/25 09:57:39;;;;;;;;;;;;;;;24.67;50.78;99957.47;7400825;19;1167;-44
2023/07/25 10:00:08;;;;;;;;;;;;;;;24.44;51.51;99944.13;7398749;19;1272;-44
2023/07/25 10:02:40;;;;;;;;;;;;;;;24.38;51.46;99934.91;7399497;19;1523;-44
2023/07/25 10:05:09;;;;;;;;;;;;;;;24.31;51.44;99923.19;7398212;19;1943;-44
2023/07/25 10:07:37;;;;;;;;;;;;;;;24.44;51.04;99923.34;7399812;19;1480;-41
2023/07/25 10:10:06;;;;;;;;;;;;;;;24.54;51.32;99925.75;7396074;19;1582;-41
2023/07/25 10:12:34;;;;;;;;;;;;;;;24.53;51.30;99922.22;7399155;19;1346;-41
2023/07/25 10:15:03;;;;;;;;;;;;;;;24.49;51.44;99914.66;7399071;19;1841;-41
2023/07/25 10:17:32;;;;;;;;;;;;;;;24.31;51.16;99918.66;7401627;19;1249;-41
2023/07/25 10:20:07;;;;;;;;;;;;;;;24.31;51.38;99940.25;7398486;19;1211;-41
2023/07/25 10:22:36;;;;;;;;;;;;;;;24.44;52.54;99917.09;7398747;19;1690;-40
2023/07/25 10:25:05;;;;;;;;;;;;;;;24.36;53.12;99920.75;7399795;19;1546;-41
2023/07/25 10:27:36;;;;;;;;;;;;;;;23.93;52.82;99908.00;7400762;19;1541;-40
2023/07/25 10:30:04;;;;;;;;;;;;;;;23.14;52.90;99818.69;7399986;19;1578;-40
2023/07/25 10:32:45;;;;;;;;;;;;;;;23.69;53.09;99901.00;7399162;19;1230;-40
2023/07/25 10:35:16;;;;;;;;;;;;;;;23.67;53.35;99886.03;7397670;19;1857;-40
2023/07/25 10:37:45;;;;;;;;;;;;;;;23.72;54.29;99887.16;7393572;19;2101;-40
2023/07/25 10:40:15;;;;;;;;;;;;;;;23.56;55.34;99903.56;7394456;19;1268;-40
2023/07/25 10:42:45;;;;;;;;;;;;;;;23.71;55.96;99885.47;7395726;19;999;-40
2023/07/25 10:45:40;;;;;;;;;;;;;;;23.79;56.49;99890.78;7394244;19;1574;-40
2023/07/25 10:48:28;;;;;;;;;;;;;;;23.96;56.55;99898.69;7388828;19;2280;-43
2023/07/25 10:50:59;;;;;;;;;;;;;;;23.95;56.54;99876.25;7395231;19;1782;-43
2023/07/25 10:53:27;;;;;;;;;;;;;;;24.02;55.99;99879.88;7398406;19;1618;-40
2023/07/25 10:56:10;;;;;;;;;;;;;;;23.95;56.11;99870.84;6870278;19;9999720;-40
2023/07/25 10:58:40;;;;;;;;;;;;;;;23.89;56.36;99868.91;7390937;19;1526;-41
2023/07/25 11:01:09;;;;;;;;;;;;;;;23.90;56.52;99867.06;7392957;19;1624;-40
2023/07/25 11:03:38;;;;;;;;;;;;;;;23.97;56.72;99859.84;7391554;19;1920;-41
2023/07/25 11:06:21;;;;;;;;;;;;;;;23.96;56.87;99855.50;7391297;19;1850;-41
2023/07/25 11:08:53;;;;;;;;;;;;;;;24.08;56.58;99867.47;7392229;19;1866;-40
2023/07/25 11:11:21;;;;;;;;;;;;;;;24.13;56.48;99856.06;7391149;19;1433;-41
2023/07/25 11:13:50;;;;;;;;;;;;;;;24.06;56.86;99871.41;7393580;19;1052;-41
2023/07/25 11:16:18;;;;;;;;;;;;;;;24.06;56.97;99838.97;7389251;19;1861;-41
2023/07/25 11:18:50;;;;;;;;;;;;;;;24.02;57.32;99836.66;7388602;19;1615;-41
2023/07/25 11:21:19;;;;;;;;;;;;;;;24.05;57.29;99848.09;7389442;19;1620;-41
2023/07/25 11:23:47;;;;;;;;;;;;;;;24.06;57.26;99829.00;7390890;19;1650;-40
2023/07/25 11:26:18;;;;;;;;;;;;;;;24.15;57.03;99833.28;7391688;19;1591;-41
2023/07/25 11:28:47;;;;;;;;;;;;;;;24.01;57.71;99817.94;7391409;19;1630;-41
2023/07/25 11:31:21;;;;;;;;;;;;;;;24.11;57.69;99823.03;7391125;19;1610;-41
2023/07/25 11:33:49;;;;;;;;;;;;;;;23.95;58.20;99818.69;7391672;19;1589;-40
2023/07/25 11:36:17;;;;;;;;;;;;;;;23.90;58.31;99813.06;7389520;19;1917;-41
2023/07/25 11:38:45;;;;;;;;;;;;;;;23.95;58.57;99819.53;7391162;19;1930;-41
2023/07/25 11:41:14;;;;;;;;;;;;;;;23.98;58.33;99823.72;7391233;19;1721;-41
2023/07/25 11:43:45;;;;;;;;;;;;;;;24.01;58.63;99818.78;7391389;19;1115;-40
2023/07/25 11:46:17;;;;;;;;;;;;;;;24.11;60.01;99820.31;7391515;19;1813;-40
2023/07/25 11:48:46;;;;;;;;;;;;;;;24.44;59.66;99812.53;7393754;19;1841;-41
2023/07/25 11:51:14;;;;;;;;;;;;;;;24.52;57.61;99811.59;7394787;19;1251;-41
2023/07/25 11:53:43;;;;;;;;;;;;;;;24.52;56.03;99798.91;7395855;19;1528;-42
2023/07/25 11:56:11;;;;;;;;;;;;;;;24.51;55.73;99805.38;7395539;19;1857;-42
2023/07/25 11:58:39;;;;;;;;;;;;;;;24.49;55.54;99793.88;7398506;19;1291;-41
2023/07/25 12:01:12;;;;;;;;;;;;;;;24.52;55.38;99798.91;7395722;19;1105;-41
2023/07/25 12:03:47;;;;;;;;;;;;;;;24.44;54.77;99787.38;7396557;19;1459;-41
2023/07/25 12:06:15;;;;;;;;;;;;;;;24.39;54.64;99769.91;7395327;19;1561;-41
2023/07/25 12:08:44;;;;;;;;;;;;;;;24.36;54.80;99772.97;7397385;19;1234;-41
2023/07/25 12:11:13;;;;;;;;;;;;;;;24.39;54.31;99767.19;7396158;19;1549;-41
2023/07/25 12:13:45;;;;;;;;;;;;;;;24.42;54.06;99757.84;7396096;19;1493;-41
2023/07/25 12:16:28;;;;;;;;;;;;;;;24.39;54.02;99759.09;7396011;19;1837;-43
2023/07/25 12:18:57;;;;;;;;;;;;;;;24.31;53.98;99761.94;7394834;19;1596;-40
2023/07/25 12:21:27;;;;;;;;;;;;;;;24.36;53.79;99750.53;7396318;19;1730;-41
2023/07/25 12:23:55;;;;;;;;;;;;;;;24.33;53.82;99750.91;7394629;19;1501;-41
2023/07/25 12:26:24;;;;;;;;;;;;;;;23.87;53.42;99651.44;7393896;19;1912;-41
2023/07/25 12:28:53;;;;;;;;;;;;;;;24.35;53.35;99747.00;7396044;19;1461;-41
2023/07/25 12:31:21;;;;;;;;;;;;;;;24.54;52.93;99733.84;7397095;19;1047;-46
2023/07/25 12:33:52;;;;;;;;;;;;;;;24.45;52.91;99730.41;7396162;19;1135;-41
2023/07/25 12:36:21;;;;;;;;;;;;;;;24.46;52.79;99733.97;7394318;19;1973;-41
2023/07/25 12:38:49;;;;;;;;;;;;;;;24.50;52.90;99738.81;7393639;19;1370;-41
2023/07/25 12:41:17;;;;;;;;;;;;;;;24.44;52.80;99717.94;7395702;19;1256;-41
2023/07/25 12:43:46;;;;;;;;;;;;;;;24.47;52.80;99722.97;7395719;19;1296;-44
2023/07/25 12:46:14;;;;;;;;;;;;;;;24.42;52.58;99709.22;7395408;19;1610;-41
2023/07/25 12:48:42;;;;;;;;;;;;;;;24.40;52.56;99709.41;7395607;19;1300;-41
2023/07/25 12:51:13;;;;;;;;;;;;;;;24.42;52.44;99709.22;7393044;19;1883;-42
2023/07/25 12:53:41;;;;;;;;;;;;;;;24.44;52.41;99704.44;7394205;19;1870;-41
2023/07/25 12:56:10;;;;;;;;;;;;;;;24.44;52.36;99704.44;7395119;19;1845;-41
2023/07/25 12:58:38;;;;;;;;;;;;;;;24.40;52.07;99692.34;7395279;19;1244;-41
2023/07/25 13:01:06;;;;;;;;;;;;;;;24.43;51.94;99689.25;7394019;19;1616;-41